createdAt,value
2022-11-28T00:01:25.235Z,6.35
2022-11-28T00:03:52.388Z,5.75
2022-11-28T00:06:19.866Z,6.68
2022-11-28T00:08:47.544Z,6.45
2022-11-28T00:11:15.938Z,7.22
2022-11-28T00:13:43.534Z,6.38
2022-11-28T00:16:16.188Z,6.78
2022-11-28T00:18:43.728Z,6.25
2022-11-28T00:21:13.189Z,6.57
2022-11-28T00:23:41.166Z,6.97
2022-11-28T00:26:14.185Z,6.80
2022-11-28T00:28:41.331Z,7.55
2022-11-28T00:31:13.812Z,6.97
2022-11-28T00:33:41.423Z,7.07
2022-11-28T00:36:08.915Z,6.88
2022-11-28T00:38:35.948Z,7.53
2022-11-28T00:41:18.067Z,8.05
2022-11-28T00:43:47.064Z,7.90
2022-11-28T00:46:15.492Z,7.00
2022-11-28T00:48:42.631Z,7.53
2022-11-28T00:51:14.315Z,8.13
2022-11-28T00:53:42.690Z,7.10
2022-11-28T00:56:11.960Z,7.07
2022-11-28T00:58:39.967Z,6.82
2022-11-28T01:01:37.981Z,7.43
2022-11-28T01:04:08.323Z,8.68
2022-11-28T01:06:44.465Z,8.57
2022-11-28T01:09:17.565Z,7.63
2022-11-28T01:11:46.189Z,8.05
2022-11-28T01:14:13.698Z,7.35
2022-11-28T01:16:40.807Z,7.28
2022-11-28T01:19:08.062Z,7.50
2022-11-28T01:21:36.056Z,7.40
2022-11-28T01:24:03.262Z,8.88
2022-11-28T01:26:30.673Z,6.50
2022-11-28T01:28:59.725Z,7.18
2022-11-28T01:31:28.905Z,7.18
2022-11-28T01:33:56.882Z,8.32
2022-11-28T01:36:24.456Z,8.15
2022-11-28T01:38:52.426Z,8.35
2022-11-28T01:41:24.807Z,7.32
2022-11-28T01:44:08.681Z,6.97
2022-11-28T01:46:36.873Z,7.82
2022-11-28T01:49:22.264Z,7.13
2022-11-28T01:51:56.104Z,6.80
2022-11-28T01:54:25.411Z,7.53
2022-11-28T01:56:58.202Z,7.10
2022-11-28T01:59:28.232Z,7.03
2022-11-28T02:01:55.436Z,7.03
2022-11-28T02:04:25.901Z,7.53
2022-11-28T02:06:52.951Z,7.03
2022-11-28T02:09:20.159Z,6.97
2022-11-28T02:12:08.011Z,8.68
2022-11-28T02:14:46.207Z,7.57
2022-11-28T02:17:15.934Z,6.90
2022-11-28T02:20:01.344Z,8.43
2022-11-28T02:22:40.974Z,7.38
2022-11-28T02:25:52.699Z,7.50
2022-11-28T02:28:30.033Z,8.05
2022-11-28T02:31:33.358Z,6.72
2022-11-28T02:34:08.327Z,7.10
2022-11-28T02:36:50.144Z,7.07
2022-11-28T02:39:25.302Z,7.77
2022-11-28T02:42:15.072Z,7.35
2022-11-28T02:45:27.465Z,7.38
2022-11-28T02:48:03.595Z,7.55
2022-11-28T02:50:38.428Z,7.90
2022-11-28T02:53:20.001Z,7.00
2022-11-28T02:55:47.619Z,7.78
2022-11-28T02:58:14.696Z,7.95
2022-11-28T03:00:46.897Z,7.13
2022-11-28T03:03:27.120Z,7.70
2022-11-28T03:06:24.339Z,6.75
2022-11-28T03:09:19.619Z,6.95
2022-11-28T03:11:58.356Z,7.32
2022-11-28T03:14:36.705Z,8.07
2022-11-28T03:17:03.627Z,7.80
2022-11-28T03:19:39.093Z,7.65
2022-11-28T03:22:24.899Z,8.35
2022-11-28T03:25:06.105Z,7.43
2022-11-28T03:27:38.788Z,7.20
2022-11-28T03:30:12.155Z,8.27
2022-11-28T03:32:40.285Z,7.63
2022-11-28T03:35:14.063Z,8.15
2022-11-28T03:37:47.747Z,8.60
2022-11-28T03:40:26.900Z,8.75
2022-11-28T03:43:01.422Z,9.00
2022-11-28T03:45:32.506Z,8.68
2022-11-28T03:48:05.537Z,8.60
2022-11-28T03:50:47.538Z,9.50
2022-11-28T03:53:26.007Z,8.90
2022-11-28T03:56:04.265Z,8.90
2022-11-28T03:58:36.453Z,8.70
2022-11-28T04:01:27.245Z,9.43
2022-11-28T04:04:03.200Z,8.27
2022-11-28T04:06:37.722Z,7.95
2022-11-28T04:09:14.533Z,8.23
2022-11-28T04:11:51.648Z,8.90
2022-11-28T04:14:29.441Z,8.02
2022-11-28T04:17:17.361Z,8.77
2022-11-28T04:19:51.689Z,9.07
2022-11-28T04:22:30.841Z,8.05
2022-11-28T04:25:02.441Z,9.07
2022-11-28T04:27:35.417Z,9.27
2022-11-28T04:30:04.736Z,8.98
2022-11-28T04:32:36.162Z,9.25
2022-11-28T04:35:26.132Z,9.18
2022-11-28T04:37:55.815Z,9.57
2022-11-28T04:40:24.741Z,8.52
2022-11-28T04:42:56.492Z,9.77
2022-11-28T04:45:30.462Z,9.27
2022-11-28T04:47:58.029Z,9.75
2022-11-28T04:50:31.211Z,9.95
2022-11-28T04:53:10.117Z,9.18
2022-11-28T04:56:01.547Z,9.63
2022-11-28T04:58:35.446Z,9.65
2022-11-28T05:01:05.756Z,9.32
2022-11-28T05:03:32.881Z,8.73
2022-11-28T05:06:01.453Z,8.95
2022-11-28T05:08:28.748Z,10.63
2022-11-28T05:10:55.878Z,8.70
2022-11-28T05:13:22.920Z,9.70
2022-11-28T05:15:49.929Z,8.80
2022-11-28T05:18:16.932Z,9.13
2022-11-28T05:20:44.613Z,9.32
2022-11-28T05:23:11.642Z,8.50
2022-11-28T05:25:39.968Z,9.18
2022-11-28T05:28:07.990Z,9.32
2022-11-28T05:30:35.063Z,9.65
2022-11-28T05:33:02.698Z,9.15
2022-11-28T05:35:29.754Z,8.80
2022-11-28T05:37:56.827Z,8.63
2022-11-28T05:40:23.876Z,9.05
2022-11-28T05:42:50.869Z,8.30
2022-11-28T05:45:17.881Z,8.35
2022-11-28T05:47:44.858Z,9.10
2022-11-28T05:50:11.932Z,8.38
2022-11-28T05:52:38.937Z,8.80
2022-11-28T05:55:06.541Z,8.85
2022-11-28T05:57:33.598Z,8.68
2022-11-28T06:00:00.634Z,8.43
2022-11-28T06:02:27.716Z,8.60
2022-11-28T06:04:54.790Z,8.77
2022-11-28T06:07:21.934Z,9.25
2022-11-28T06:09:48.935Z,9.40
2022-11-28T06:12:15.929Z,9.05
2022-11-28T06:14:42.892Z,9.68
2022-11-28T06:17:09.958Z,10.13
2022-11-28T06:19:37.173Z,9.82
2022-11-28T06:22:04.214Z,9.75
2022-11-28T06:24:31.176Z,10.43
2022-11-28T06:26:58.173Z,9.05
2022-11-28T06:29:25.179Z,9.18
2022-11-28T06:31:52.235Z,10.30
2022-11-28T06:34:19.252Z,9.90
2022-11-28T06:36:46.272Z,10.15
2022-11-28T06:39:15.444Z,9.45
2022-11-28T06:41:43.580Z,10.00
2022-11-28T06:44:15.008Z,10.32
2022-11-28T06:46:42.818Z,10.50
2022-11-28T06:49:13.114Z,9.65
2022-11-28T06:51:41.643Z,9.80
2022-11-28T06:54:09.147Z,10.00
2022-11-28T06:56:36.165Z,10.18
2022-11-28T06:59:03.251Z,10.18
2022-11-28T07:01:32.237Z,8.98
2022-11-28T07:03:59.316Z,9.55
2022-11-28T07:06:27.146Z,8.80
2022-11-28T07:08:57.531Z,9.90
2022-11-28T07:11:30.540Z,11.45
2022-11-28T07:13:58.689Z,9.35
2022-11-28T07:16:27.898Z,9.77
2022-11-28T07:18:56.471Z,9.77
2022-11-28T07:21:24.012Z,10.38
2022-11-28T07:23:51.507Z,9.30
2022-11-28T07:26:22.926Z,9.88
2022-11-28T07:28:51.155Z,10.25
2022-11-28T07:31:20.937Z,9.70
2022-11-28T07:33:50.429Z,10.40
2022-11-28T07:36:20.968Z,10.50
2022-11-28T07:38:49.910Z,9.98
2022-11-28T07:41:17.589Z,10.05
2022-11-28T07:43:46.442Z,10.10
2022-11-28T07:46:17.305Z,9.73
2022-11-28T07:48:45.013Z,9.80
2022-11-28T07:51:15.015Z,9.88
2022-11-28T07:53:42.911Z,9.70
2022-11-28T07:56:14.924Z,10.85
2022-11-28T07:58:43.574Z,9.48
2022-11-28T08:01:21.556Z,10.75
2022-11-28T08:03:48.896Z,13.40
2022-11-28T08:06:17.468Z,10.85
2022-11-28T08:08:46.950Z,10.60
2022-11-28T08:11:15.611Z,10.38
2022-11-28T08:13:43.030Z,10.68
2022-11-28T08:16:14.359Z,10.90
2022-11-28T08:18:41.536Z,10.55
2022-11-28T08:21:10.474Z,11.98
2022-11-28T08:23:38.518Z,10.38
2022-11-28T08:26:08.438Z,9.93
2022-11-28T08:28:35.892Z,10.48
2022-11-28T08:31:10.786Z,10.27
2022-11-28T08:33:38.186Z,9.80
2022-11-28T08:36:06.590Z,9.32
2022-11-28T08:38:33.661Z,9.55
2022-11-28T08:41:02.255Z,9.23
2022-11-28T08:43:29.415Z,9.25
2022-11-28T08:45:56.846Z,10.00
2022-11-28T08:48:24.033Z,11.20
2022-11-28T08:50:51.464Z,9.30
2022-11-28T08:53:18.814Z,9.38
2022-11-28T08:55:45.834Z,10.35
2022-11-28T08:58:13.343Z,10.10
2022-11-28T09:00:42.237Z,10.07
2022-11-28T09:03:14.703Z,9.52
2022-11-28T09:05:45.257Z,8.93
2022-11-28T09:08:13.721Z,9.25
2022-11-28T09:10:43.727Z,9.75
2022-11-28T09:13:12.979Z,9.98
2022-11-28T09:15:45.033Z,10.32
2022-11-28T09:18:13.909Z,10.15
2022-11-28T09:20:41.997Z,10.82
2022-11-28T09:23:09.805Z,10.27
2022-11-28T09:25:39.813Z,9.70
2022-11-28T09:28:07.184Z,9.18
2022-11-28T09:30:34.510Z,9.90
2022-11-28T09:33:01.673Z,9.13
2022-11-28T09:35:28.837Z,10.75
2022-11-28T09:37:57.441Z,9.57
2022-11-28T09:40:40.345Z,9.40
2022-11-28T09:43:35.721Z,9.25
2022-11-28T09:46:08.215Z,8.95
2022-11-28T09:51:14.473Z,8.50
2022-11-28T09:54:00.316Z,9.25
2022-11-28T09:56:27.505Z,8.80
2022-11-28T09:59:04.322Z,9.73
2022-11-28T10:01:44.267Z,8.52
2022-11-28T10:04:31.622Z,9.18
2022-11-28T10:07:01.572Z,9.05
2022-11-28T10:09:33.860Z,9.50
2022-11-28T10:12:15.881Z,9.18
2022-11-28T10:15:08.674Z,7.82
2022-11-28T10:17:57.307Z,8.52
2022-11-28T10:20:28.582Z,9.32
2022-11-28T10:22:59.061Z,9.68
2022-11-28T10:25:37.546Z,9.95
2022-11-28T10:28:15.269Z,9.40
2022-11-28T10:30:48.387Z,9.57
2022-11-28T10:33:29.542Z,9.38
2022-11-28T10:36:01.883Z,9.15
2022-11-28T10:38:32.180Z,8.73
2022-11-28T10:41:20.549Z,8.70
2022-11-28T10:43:59.366Z,8.35
2022-11-28T10:46:53.412Z,9.48
2022-11-28T10:49:46.578Z,11.25
2022-11-28T10:52:16.665Z,8.85
2022-11-28T10:54:52.430Z,9.90
2022-11-28T10:58:01.150Z,9.40
2022-11-28T11:00:28.213Z,9.38
2022-11-28T11:02:57.084Z,9.88
2022-11-28T11:05:25.760Z,10.18
2022-11-28T11:07:56.449Z,9.95
2022-11-28T11:10:37.246Z,9.55
2022-11-28T11:13:25.876Z,10.13
2022-11-28T11:16:03.817Z,10.55
2022-11-28T11:18:34.592Z,10.90
2022-11-28T11:21:24.480Z,10.73
2022-11-28T11:24:18.148Z,9.75
2022-11-28T11:26:48.664Z,9.90
2022-11-28T11:29:27.866Z,9.90
2022-11-28T11:31:55.611Z,10.73
2022-11-28T11:34:23.739Z,11.23
2022-11-28T11:36:51.587Z,10.88
2022-11-28T11:39:18.830Z,10.30
2022-11-28T11:41:49.317Z,11.75
2022-11-28T11:44:20.486Z,11.18
2022-11-28T11:46:52.309Z,10.52
2022-11-28T11:49:29.787Z,10.95
2022-11-28T11:51:59.199Z,11.63
2022-11-28T11:54:26.430Z,10.50
2022-11-28T11:57:11.234Z,11.77
2022-11-28T12:00:14.637Z,11.43
2022-11-28T12:06:14.127Z,10.65
2022-11-28T12:09:26.969Z,11.13
2022-11-28T12:12:01.517Z,10.02
2022-11-28T12:14:32.773Z,10.35
2022-11-28T12:17:57.221Z,11.02
2022-11-28T12:23:07.019Z,10.73
2022-11-28T12:25:43.512Z,10.52
2022-11-28T12:28:41.863Z,10.20
2022-11-28T12:31:16.779Z,12.00
2022-11-28T12:33:55.751Z,10.27
2022-11-28T12:36:49.424Z,10.38
2022-11-28T12:39:23.288Z,10.20
2022-11-28T12:42:12.404Z,9.88
2022-11-28T12:45:08.619Z,11.20
2022-11-28T12:47:50.553Z,10.85
2022-11-28T12:50:36.804Z,10.23
2022-11-28T12:53:03.745Z,10.55
2022-11-28T12:55:46.721Z,10.85
2022-11-28T12:58:23.994Z,10.68
2022-11-28T13:01:32.962Z,10.45
2022-11-28T13:04:25.289Z,11.73
2022-11-28T13:07:17.073Z,12.60
2022-11-28T13:10:03.604Z,10.77
2022-11-28T13:13:13.349Z,11.23
2022-11-28T13:16:04.842Z,10.88
2022-11-28T13:18:52.539Z,11.00
2022-11-28T13:21:32.261Z,11.07
2022-11-28T13:24:11.490Z,12.13
2022-11-28T13:27:07.983Z,12.45
2022-11-28T13:29:43.615Z,11.82
2022-11-28T13:32:28.691Z,11.25
2022-11-28T13:34:56.246Z,11.45
2022-11-28T13:40:42.133Z,11.18
2022-11-28T13:43:34.282Z,10.95
2022-11-28T13:46:01.870Z,13.03
2022-11-28T13:49:13.684Z,12.05
2022-11-28T13:51:31.966Z,11.93
2022-11-28T13:54:31.935Z,11.45
2022-11-28T13:57:29.023Z,12.45
2022-11-28T14:00:01.655Z,12.05
2022-11-28T14:02:39.392Z,11.68
2022-11-28T14:05:26.356Z,12.82
2022-11-28T14:07:56.029Z,11.45
2022-11-28T14:10:45.935Z,11.68
2022-11-28T14:13:23.162Z,11.93
2022-11-28T14:16:26.111Z,10.57
2022-11-28T14:18:57.792Z,11.05
2022-11-28T14:21:49.646Z,12.32
2022-11-28T14:24:41.315Z,11.65
2022-11-28T14:27:26.064Z,11.85
2022-11-28T14:29:55.523Z,11.32
2022-11-28T14:32:38.941Z,11.73
2022-11-28T14:35:17.273Z,11.40
2022-11-28T14:37:53.892Z,11.45
2022-11-28T14:41:11.553Z,11.63
2022-11-28T14:43:46.130Z,11.63
2022-11-28T14:46:16.189Z,12.25
2022-11-28T14:48:58.664Z,11.65
2022-11-28T14:51:44.280Z,12.10
2022-11-28T14:54:35.426Z,11.77
2022-11-28T14:57:16.447Z,11.10
2022-11-28T14:59:44.005Z,11.23
2022-11-28T15:02:11.374Z,13.00
2022-11-28T15:04:58.957Z,11.02
2022-11-28T15:07:53.887Z,10.48
2022-11-28T15:10:49.030Z,10.45
2022-11-28T15:13:19.037Z,10.13
2022-11-28T15:15:48.737Z,10.10
2022-11-28T15:18:18.821Z,9.70
2022-11-28T15:20:53.736Z,10.82
2022-11-28T15:23:33.057Z,10.38
2022-11-28T15:26:02.047Z,10.70
2022-11-28T15:28:32.384Z,11.13
2022-11-28T15:31:02.097Z,10.57
2022-11-28T15:33:30.236Z,10.50
2022-11-28T15:36:10.640Z,11.07
2022-11-28T15:38:41.138Z,10.25
2022-11-28T15:41:09.380Z,9.57
2022-11-28T15:43:41.771Z,11.48
2022-11-28T15:46:19.277Z,11.07
2022-11-28T15:48:52.281Z,11.80
2022-11-28T15:51:27.810Z,11.77
2022-11-28T15:53:55.380Z,11.43
2022-11-28T15:56:23.644Z,11.07
2022-11-28T15:58:52.964Z,11.60
2022-11-28T16:01:25.596Z,11.73
2022-11-28T16:03:55.771Z,11.13
2022-11-28T16:06:26.113Z,12.38
2022-11-28T16:08:56.984Z,12.38
2022-11-28T16:11:26.918Z,11.45
2022-11-28T16:13:57.334Z,11.55
2022-11-28T16:16:32.942Z,11.48
2022-11-28T16:19:02.391Z,10.60
2022-11-28T16:21:35.929Z,12.05
2022-11-28T16:24:16.134Z,11.90
2022-11-28T16:26:54.235Z,11.38
2022-11-28T16:29:24.373Z,11.93
2022-11-28T16:31:51.677Z,10.98
2022-11-28T16:34:46.706Z,10.45
2022-11-28T16:37:14.291Z,11.05
2022-11-28T16:39:42.038Z,11.38
2022-11-28T16:42:17.451Z,11.60
2022-11-28T16:44:44.714Z,11.65
2022-11-28T16:47:30.265Z,11.13
2022-11-28T16:50:15.392Z,12.10
2022-11-28T16:52:53.552Z,11.55
2022-11-28T16:55:29.617Z,11.63
2022-11-28T16:58:08.452Z,13.32
2022-11-28T17:00:36.135Z,11.13
2022-11-28T17:03:06.441Z,11.88
2022-11-28T17:05:36.092Z,11.35
2022-11-28T17:08:03.278Z,11.43
2022-11-28T17:10:30.300Z,10.98
2022-11-28T17:12:57.493Z,11.30
2022-11-28T17:15:24.592Z,11.68
2022-11-28T17:17:52.271Z,12.27
2022-11-28T17:20:19.588Z,11.55
2022-11-28T17:22:47.819Z,11.18
2022-11-28T17:25:17.844Z,12.30
2022-11-28T17:27:45.398Z,11.85
2022-11-28T17:30:16.467Z,10.63
2022-11-28T17:32:43.639Z,10.20
2022-11-28T17:35:19.988Z,10.55
2022-11-28T17:37:47.010Z,10.63
2022-11-28T17:40:32.810Z,9.52
2022-11-28T17:43:01.113Z,10.18
2022-11-28T17:45:31.074Z,10.43
2022-11-28T17:47:58.874Z,10.88
2022-11-28T17:50:26.568Z,10.48
2022-11-28T17:52:53.777Z,10.20
2022-11-28T17:55:20.900Z,10.63
2022-11-28T17:57:48.178Z,11.45
2022-11-28T18:00:16.786Z,10.95
2022-11-28T18:02:44.907Z,10.40
2022-11-28T18:05:13.109Z,9.55
2022-11-28T18:07:40.775Z,9.95
2022-11-28T18:10:11.578Z,9.77
2022-11-28T18:12:39.385Z,10.52
2022-11-28T18:15:10.104Z,10.38
2022-11-28T18:17:37.994Z,8.80
2022-11-28T18:20:05.817Z,8.60
2022-11-28T18:22:32.810Z,9.15
2022-11-28T18:25:00.512Z,9.43
2022-11-28T18:27:28.074Z,9.68
2022-11-28T18:29:55.076Z,8.82
2022-11-28T18:32:23.187Z,9.48
2022-11-28T18:34:50.442Z,9.55
2022-11-28T18:37:17.519Z,9.15
2022-11-28T18:39:44.759Z,9.98
2022-11-28T18:42:11.869Z,9.55
2022-11-28T18:44:38.932Z,10.15
2022-11-28T18:47:05.949Z,8.68
2022-11-28T18:49:32.934Z,9.57
2022-11-28T18:51:59.909Z,9.55
2022-11-28T18:54:30.960Z,9.25
2022-11-28T18:56:57.952Z,8.98
2022-11-28T18:59:25.410Z,9.15
2022-11-28T19:01:52.762Z,9.32
2022-11-28T19:04:19.815Z,8.30
2022-11-28T19:06:48.551Z,8.35
2022-11-28T19:09:16.897Z,9.20
2022-11-28T19:11:45.156Z,9.65
2022-11-28T19:14:17.709Z,9.63
2022-11-28T19:16:53.504Z,9.30
2022-11-28T19:19:20.672Z,10.25
2022-11-28T19:21:49.749Z,9.43
2022-11-28T19:24:21.173Z,9.25
2022-11-28T19:26:50.024Z,10.88
2022-11-28T19:29:17.636Z,10.65
2022-11-28T19:31:45.046Z,11.65
2022-11-28T19:34:15.224Z,11.07
2022-11-28T19:36:47.684Z,10.40
2022-11-28T19:39:23.952Z,10.88
2022-11-28T19:41:54.676Z,9.88
2022-11-28T19:44:24.537Z,9.27
2022-11-28T19:46:53.012Z,10.35
2022-11-28T19:49:23.135Z,9.88
2022-11-28T19:51:50.956Z,11.45
2022-11-28T19:54:21.509Z,9.90
2022-11-28T19:56:49.058Z,11.30
2022-11-28T19:59:16.872Z,11.15
2022-11-28T20:01:44.222Z,12.35
2022-11-28T20:04:11.579Z,11.85
2022-11-28T20:06:38.752Z,11.45
2022-11-28T20:09:11.981Z,11.95
2022-11-28T20:11:42.880Z,11.43
2022-11-28T20:14:16.452Z,11.05
2022-11-28T20:16:44.327Z,11.27
2022-11-28T20:19:14.159Z,12.40
2022-11-28T20:21:41.933Z,11.40
2022-11-28T20:24:10.344Z,12.88
2022-11-28T20:26:40.469Z,13.15
2022-11-28T20:29:11.784Z,13.15
2022-11-28T20:31:46.206Z,18.50
2022-11-28T20:34:17.105Z,18.65
2022-11-28T20:36:44.890Z,15.27
2022-11-28T20:39:12.808Z,12.43
2022-11-28T20:41:39.791Z,10.43
2022-11-28T20:44:10.242Z,10.43
2022-11-28T20:46:38.135Z,9.05
2022-11-28T20:49:06.900Z,9.35
2022-11-28T20:51:35.162Z,9.25
2022-11-28T20:54:04.687Z,8.88
2022-11-28T20:56:51.664Z,8.27
2022-11-28T20:59:21.933Z,8.75
2022-11-28T21:01:48.973Z,8.23
2022-11-28T21:04:17.565Z,8.45
2022-11-28T21:06:47.125Z,8.35
2022-11-28T21:09:14.762Z,9.02
2022-11-28T21:11:56.969Z,9.10
2022-11-28T21:14:25.792Z,8.25
2022-11-28T21:16:52.954Z,9.52
2022-11-28T21:19:20.099Z,9.32
2022-11-28T21:21:47.051Z,10.63
2022-11-28T21:24:14.369Z,10.13
2022-11-28T21:26:46.395Z,11.18
2022-11-28T21:29:21.262Z,12.60
2022-11-28T21:31:48.456Z,10.70
2022-11-28T21:34:16.683Z,10.82
2022-11-28T21:36:44.779Z,11.60
2022-11-28T21:39:14.794Z,11.43
2022-11-28T21:41:42.090Z,11.18
2022-11-28T21:44:09.600Z,11.45
2022-11-28T21:46:36.651Z,11.70
2022-11-28T21:49:03.699Z,12.10
2022-11-28T21:51:30.705Z,11.63
2022-11-28T21:53:58.065Z,11.77
2022-11-28T21:56:25.670Z,10.90
2022-11-28T21:58:54.107Z,11.43
2022-11-28T22:01:21.510Z,11.23
2022-11-28T22:03:49.367Z,12.60
2022-11-28T22:06:23.037Z,12.93
2022-11-28T22:08:51.408Z,11.50
2022-11-28T22:11:21.928Z,15.05
2022-11-28T22:13:50.007Z,12.90
2022-11-28T22:16:18.666Z,13.73
2022-11-28T22:18:47.289Z,12.50
2022-11-28T22:21:50.533Z,12.30
2022-11-28T22:24:08.216Z,12.30
2022-11-28T22:26:35.958Z,13.15
2022-11-28T22:29:04.646Z,14.27
2022-11-28T22:31:32.840Z,14.15
2022-11-28T22:34:00.168Z,10.95
2022-11-28T22:36:27.538Z,11.00
2022-11-28T22:38:56.896Z,10.68
2022-11-28T22:41:29.409Z,11.75
2022-11-28T22:44:00.488Z,11.48
2022-11-28T22:46:28.720Z,10.80
2022-11-28T22:48:56.145Z,11.93
2022-11-28T22:51:25.477Z,11.45
2022-11-28T22:53:58.988Z,11.75
2022-11-28T22:56:28.690Z,11.23
2022-11-28T22:58:55.971Z,11.73
2022-11-28T23:01:27.174Z,10.93
2022-11-28T23:03:55.113Z,11.18
2022-11-28T23:06:26.506Z,11.05
2022-11-28T23:08:58.398Z,12.77
2022-11-28T23:11:32.727Z,10.63
2022-11-28T23:14:01.318Z,11.23
2022-11-28T23:16:31.028Z,12.45
2022-11-28T23:19:00.965Z,11.80
2022-11-28T23:21:33.597Z,12.95
2022-11-28T23:24:01.211Z,12.13
2022-11-28T23:26:30.707Z,11.85
2022-11-28T23:29:00.533Z,12.85
2022-11-28T23:31:30.862Z,12.65
2022-11-28T23:34:00.411Z,12.40
2022-11-28T23:36:37.014Z,13.10
2022-11-28T23:39:18.326Z,14.43
2022-11-28T23:41:45.939Z,13.18
2022-11-28T23:44:14.253Z,12.38
2022-11-28T23:46:41.978Z,14.23
2022-11-28T23:49:09.764Z,12.93
2022-11-28T23:51:37.762Z,14.13
2022-11-28T23:54:04.895Z,16.38
2022-11-28T23:56:35.256Z,11.63
2022-11-28T23:59:04.486Z,13.27
